Lyon Satolas, France

8:25 AM CEST on August 22, 2014 (GMT +0200)
Saint Exupery | Change Station
CLOSE
Current Station
Airport
Location: Lyon Satolas,
Elevation: 787 ft
Nearby Weather Stations

Elev 787 ft 45.73 °N, 5.08 °E | Updated 25 minutes ago

Clear
Clear
55 °F
Feels Like 55 °F
N
2
Wind Variable Wind from Variable

Today
High -- | Low -- °F
--% Chance of Precip.
Yesterday
High -- | Low -- °F
Precip. -- in
6:48 AM 8:36 PM
Waning Crescent, 10% visible
Pressure 30.04 in
Visibility -9999.0 miles
Clouds
Dew Point 48 °F
Humidity 77%
Rainfall 0.00 in
Snow Depth Not available.
UV Not available.
Pollen Not available.
Air Quality Not available.
Flu Activity Not available.
METAR LFLL 220600Z VRB02KT CAVOK 13/09 Q1017 NOSIG

More Conditions Fewer Conditions

Pressure 30.04 in
Visibility -9999.0 miles
Clouds
Dew Point 48 °F
Humidity 77%
Rainfall 0.00 in
Snow Depth Not available.
UV Not available.
Pollen Not available.
Air Quality Not available.
Flu Activity Not available.
METAR LFLL 220600Z VRB02KT CAVOK 13/09 Q1017 NOSIG

More Conditions Fewer Conditions

10-Day Weather Forecast

Almanac

Astronomy

Aug. 22, 2014 Rise Set
Actual Time 6:48 AM CEST 8:36 PM CEST
Civil Twilight 6:16 AM CEST 9:07 PM CEST
Nautical Twilight 5:37 AM CEST 9:46 PM CEST
Astronomical Twilight 4:55 AM CEST 10:28 PM CEST
Moon 3:52 AM CEST 6:37 PM CEST
Length of Visible Light 14h 51m
Length of Day
13h 48m
Tomorrow will be 3m 0s shorter.
Waning Crescent, 10% of the Moon is Illuminated
Today
Waning Crescent
Aug 25
New
Sep 2
First Quarter
Sep 8
Full
Sep 15
Last Quarter

Yesterday's Extremes

Country Highs Country Lows

Community

WunderPhotos

Upload Photos

1,746,131 photos uploaded!

Nearby

Snow Depth

Not available.

Earthquake Activity

City Distance Mag. Time & Date
No recent earthquake activity has been reported nearby.
Minimum magnitude displayed is 2.5.

Coastal Water Temperatures

Place Temperature
No Stations Reporting

Nearby Weather Stations